sensor_id;sensor_type;location;lat;lon;timestamp;P1;durP1;ratioP1;P2;durP2;ratioP2
69703;SDS011;56967;43.538;-5.646;2022-09-09T00:09:21;3.83;;;1.40;;
69703;SDS011;56967;43.538;-5.646;2022-09-09T00:16:54;7.25;;;1.40;;
69703;SDS011;56967;43.538;-5.646;2022-09-09T00:19:28;6.28;;;1.48;;
69703;SDS011;56967;43.538;-5.646;2022-09-09T00:22:00;4.55;;;1.25;;
69703;SDS011;56967;43.538;-5.646;2022-09-09T00:24:28;3.58;;;1.08;;
69703;SDS011;56967;43.538;-5.646;2022-09-09T00:27:01;6.53;;;1.63;;
69703;SDS011;56967;43.538;-5.646;2022-09-09T00:29:43;6.60;;;1.60;;
69703;SDS011;56967;43.538;-5.646;2022-09-09T00:32:16;7.88;;;1.60;;
69703;SDS011;56967;43.538;-5.646;2022-09-09T00:35:02;5.20;;;1.27;;
69703;SDS011;56967;43.538;-5.646;2022-09-09T00:37:28;7.28;;;1.67;;
69703;SDS011;56967;43.538;-5.646;2022-09-09T00:39:57;8.27;;;1.52;;
69703;SDS011;56967;43.538;-5.646;2022-09-09T00:42:26;6.18;;;1.50;;
69703;SDS011;56967;43.538;-5.646;2022-09-09T00:47:43;4.82;;;1.50;;
69703;SDS011;56967;43.538;-5.646;2022-09-09T00:55:48;8.80;;;1.88;;
69703;SDS011;56967;43.538;-5.646;2022-09-09T00:58:10;5.07;;;1.42;;
69703;SDS011;56967;43.538;-5.646;2022-09-09T01:05:41;6.90;;;1.70;;
69703;SDS011;56967;43.538;-5.646;2022-09-09T01:10:49;7.32;;;2.17;;
69703;SDS011;56967;43.538;-5.646;2022-09-09T01:16:15;6.78;;;2.03;;
69703;SDS011;56967;43.538;-5.646;2022-09-09T01:18:46;8.15;;;1.90;;
69703;SDS011;56967;43.538;-5.646;2022-09-09T01:21:22;8.48;;;2.00;;
69703;SDS011;56967;43.538;-5.646;2022-09-09T01:26:21;6.40;;;1.77;;
69703;SDS011;56967;43.538;-5.646;2022-09-09T01:28:48;5.15;;;1.70;;
69703;SDS011;56967;43.538;-5.646;2022-09-09T01:31:17;6.93;;;2.00;;
69703;SDS011;56967;43.538;-5.646;2022-09-09T01:33:42;8.73;;;2.17;;
69703;SDS011;56967;43.538;-5.646;2022-09-09T01:36:10;11.30;;;2.20;;
69703;SDS011;56967;43.538;-5.646;2022-09-09T01:38:37;9.95;;;2.22;;
69703;SDS011;56967;43.538;-5.646;2022-09-09T01:41:03;6.70;;;1.90;;
69703;SDS011;56967;43.538;-5.646;2022-09-09T01:43:28;8.77;;;2.33;;
69703;SDS011;56967;43.538;-5.646;2022-09-09T01:45:54;10.82;;;2.42;;
69703;SDS011;56967;43.538;-5.646;2022-09-09T01:48:21;11.68;;;2.10;;
69703;SDS011;56967;43.538;-5.646;2022-09-09T01:50:47;11.27;;;1.90;;
69703;SDS011;56967;43.538;-5.646;2022-09-09T01:53:12;7.38;;;1.67;;
69703;SDS011;56967;43.538;-5.646;2022-09-09T01:55:40;8.00;;;1.80;;
69703;SDS011;56967;43.538;-5.646;2022-09-09T02:01:10;10.48;;;2.03;;
69703;SDS011;56967;43.538;-5.646;2022-09-09T02:03:38;10.07;;;2.25;;
69703;SDS011;56967;43.538;-5.646;2022-09-09T02:06:12;8.82;;;2.25;;
69703;SDS011;56967;43.538;-5.646;2022-09-09T02:08:43;6.75;;;2.10;;
69703;SDS011;56967;43.538;-5.646;2022-09-09T02:13:36;12.37;;;2.50;;
69703;SDS011;56967;43.538;-5.646;2022-09-09T02:16:07;7.38;;;1.90;;
69703;SDS011;56967;43.538;-5.646;2022-09-09T02:18:38;7.05;;;2.00;;
69703;SDS011;56967;43.538;-5.646;2022-09-09T02:21:05;5.63;;;1.80;;
69703;SDS011;56967;43.538;-5.646;2022-09-09T02:23:31;5.95;;;2.20;;
69703;SDS011;56967;43.538;-5.646;2022-09-09T02:25:57;6.10;;;2.35;;
69703;SDS011;56967;43.538;-5.646;2022-09-09T02:28:23;8.75;;;2.15;;
69703;SDS011;56967;43.538;-5.646;2022-09-09T02:30:50;7.70;;;2.03;;
69703;SDS011;56967;43.538;-5.646;2022-09-09T02:33:21;5.68;;;1.90;;
69703;SDS011;56967;43.538;-5.646;2022-09-09T02:35:48;9.88;;;2.08;;
69703;SDS011;56967;43.538;-5.646;2022-09-09T02:38:15;5.10;;;1.83;;
69703;SDS011;56967;43.538;-5.646;2022-09-09T02:40:41;8.20;;;2.05;;
69703;SDS011;56967;43.538;-5.646;2022-09-09T02:43:06;6.33;;;2.00;;
69703;SDS011;56967;43.538;-5.646;2022-09-09T02:45:35;6.43;;;1.77;;
69703;SDS011;56967;43.538;-5.646;2022-09-09T02:50:34;9.80;;;1.95;;
69703;SDS011;56967;43.538;-5.646;2022-09-09T02:58:05;8.60;;;2.03;;
69703;SDS011;56967;43.538;-5.646;2022-09-09T03:00:32;7.45;;;1.80;;
69703;SDS011;56967;43.538;-5.646;2022-09-09T03:02:57;6.28;;;1.92;;
69703;SDS011;56967;43.538;-5.646;2022-09-09T03:05:23;5.18;;;1.85;;
69703;SDS011;56967;43.538;-5.646;2022-09-09T03:07:48;7.95;;;1.88;;
69703;SDS011;56967;43.538;-5.646;2022-09-09T03:10:16;6.32;;;1.60;;
69703;SDS011;56967;43.538;-5.646;2022-09-09T03:12:41;6.78;;;2.20;;
69703;SDS011;56967;43.538;-5.646;2022-09-09T03:15:06;4.55;;;1.52;;
69703;SDS011;56967;43.538;-5.646;2022-09-09T03:17:32;6.90;;;1.70;;
69703;SDS011;56967;43.538;-5.646;2022-09-09T03:19:57;5.32;;;1.92;;
69703;SDS011;56967;43.538;-5.646;2022-09-09T03:22:23;6.35;;;2.00;;
69703;SDS011;56967;43.538;-5.646;2022-09-09T03:24:50;5.90;;;1.70;;
69703;SDS011;56967;43.538;-5.646;2022-09-09T03:27:15;7.15;;;1.95;;
69703;SDS011;56967;43.538;-5.646;2022-09-09T03:29:44;5.65;;;1.98;;
69703;SDS011;56967;43.538;-5.646;2022-09-09T03:32:10;6.18;;;1.70;;
69703;SDS011;56967;43.538;-5.646;2022-09-09T03:34:35;7.15;;;1.95;;
69703;SDS011;56967;43.538;-5.646;2022-09-09T03:37:04;7.28;;;1.42;;
69703;SDS011;56967;43.538;-5.646;2022-09-09T03:39:30;7.60;;;1.70;;
69703;SDS011;56967;43.538;-5.646;2022-09-09T03:41:55;5.95;;;1.30;;
69703;SDS011;56967;43.538;-5.646;2022-09-09T03:44:20;3.47;;;1.10;;
69703;SDS011;56967;43.538;-5.646;2022-09-09T03:46:46;3.35;;;1.00;;
69703;SDS011;56967;43.538;-5.646;2022-09-09T03:49:11;5.93;;;1.30;;
69703;SDS011;56967;43.538;-5.646;2022-09-09T03:51:36;4.03;;;1.20;;
69703;SDS011;56967;43.538;-5.646;2022-09-09T03:54:03;5.55;;;1.30;;
69703;SDS011;56967;43.538;-5.646;2022-09-09T03:56:30;4.40;;;1.40;;
69703;SDS011;56967;43.538;-5.646;2022-09-09T03:58:56;8.00;;;2.17;;
69703;SDS011;56967;43.538;-5.646;2022-09-09T04:01:21;3.63;;;1.17;;
69703;SDS011;56967;43.538;-5.646;2022-09-09T04:03:46;5.45;;;1.65;;
69703;SDS011;56967;43.538;-5.646;2022-09-09T04:06:12;4.60;;;1.55;;
69703;SDS011;56967;43.538;-5.646;2022-09-09T04:08:38;5.65;;;2.10;;
69703;SDS011;56967;43.538;-5.646;2022-09-09T04:11:04;4.82;;;1.55;;
69703;SDS011;56967;43.538;-5.646;2022-09-09T04:13:31;5.72;;;1.80;;
69703;SDS011;56967;43.538;-5.646;2022-09-09T04:15:58;6.95;;;1.52;;
69703;SDS011;56967;43.538;-5.646;2022-09-09T04:18:23;3.47;;;1.15;;
69703;SDS011;56967;43.538;-5.646;2022-09-09T04:20:49;4.70;;;1.65;;
69703;SDS011;56967;43.538;-5.646;2022-09-09T04:23:15;4.68;;;1.55;;
69703;SDS011;56967;43.538;-5.646;2022-09-09T04:25:45;4.07;;;1.52;;
69703;SDS011;56967;43.538;-5.646;2022-09-09T04:28:11;6.25;;;2.00;;
69703;SDS011;56967;43.538;-5.646;2022-09-09T04:30:37;7.97;;;2.05;;
69703;SDS011;56967;43.538;-5.646;2022-09-09T04:33:04;7.20;;;2.05;;
69703;SDS011;56967;43.538;-5.646;2022-09-09T04:35:30;5.95;;;1.90;;
69703;SDS011;56967;43.538;-5.646;2022-09-09T04:37:56;4.57;;;1.45;;
69703;SDS011;56967;43.538;-5.646;2022-09-09T04:40:21;5.32;;;1.27;;
69703;SDS011;56967;43.538;-5.646;2022-09-09T04:42:47;6.55;;;1.60;;
69703;SDS011;56967;43.538;-5.646;2022-09-09T04:45:14;4.43;;;1.40;;
69703;SDS011;56967;43.538;-5.646;2022-09-09T04:47:40;10.85;;;2.15;;
69703;SDS011;56967;43.538;-5.646;2022-09-09T04:50:06;3.83;;;1.30;;
69703;SDS011;56967;43.538;-5.646;2022-09-09T04:52:33;6.72;;;1.80;;
69703;SDS011;56967;43.538;-5.646;2022-09-09T04:54:58;4.93;;;1.20;;
69703;SDS011;56967;43.538;-5.646;2022-09-09T04:57:24;5.90;;;1.30;;
69703;SDS011;56967;43.538;-5.646;2022-09-09T04:59:49;7.70;;;1.30;;
69703;SDS011;56967;43.538;-5.646;2022-09-09T05:02:15;5.15;;;1.30;;
69703;SDS011;56967;43.538;-5.646;2022-09-09T05:04:40;3.17;;;1.17;;
69703;SDS011;56967;43.538;-5.646;2022-09-09T05:07:05;6.00;;;1.63;;
69703;SDS011;56967;43.538;-5.646;2022-09-09T05:09:31;4.82;;;1.50;;
69703;SDS011;56967;43.538;-5.646;2022-09-09T05:11:57;5.60;;;1.33;;
69703;SDS011;56967;43.538;-5.646;2022-09-09T05:14:23;6.28;;;1.52;;
69703;SDS011;56967;43.538;-5.646;2022-09-09T05:16:48;6.33;;;1.30;;
69703;SDS011;56967;43.538;-5.646;2022-09-09T05:19:14;6.20;;;1.20;;
69703;SDS011;56967;43.538;-5.646;2022-09-09T05:21:40;4.80;;;1.20;;
69703;SDS011;56967;43.538;-5.646;2022-09-09T05:24:06;5.47;;;1.27;;
69703;SDS011;56967;43.538;-5.646;2022-09-09T05:26:32;4.47;;;1.00;;
69703;SDS011;56967;43.538;-5.646;2022-09-09T05:28:57;6.10;;;1.10;;
69703;SDS011;56967;43.538;-5.646;2022-09-09T05:31:24;6.57;;;1.00;;
69703;SDS011;56967;43.538;-5.646;2022-09-09T05:33:53;5.20;;;1.48;;
69703;SDS011;56967;43.538;-5.646;2022-09-09T05:36:19;4.85;;;1.30;;
69703;SDS011;56967;43.538;-5.646;2022-09-09T05:38:45;3.75;;;1.10;;
69703;SDS011;56967;43.538;-5.646;2022-09-09T05:41:11;4.10;;;1.15;;
69703;SDS011;56967;43.538;-5.646;2022-09-09T05:43:36;5.10;;;1.40;;
69703;SDS011;56967;43.538;-5.646;2022-09-09T05:46:03;5.43;;;1.20;;
69703;SDS011;56967;43.538;-5.646;2022-09-09T05:48:33;5.80;;;1.00;;
69703;SDS011;56967;43.538;-5.646;2022-09-09T05:50:59;6.00;;;1.25;;
69703;SDS011;56967;43.538;-5.646;2022-09-09T05:53:25;5.88;;;1.40;;
69703;SDS011;56967;43.538;-5.646;2022-09-09T05:55:57;4.32;;;1.30;;
69703;SDS011;56967;43.538;-5.646;2022-09-09T05:58:22;6.05;;;1.42;;
69703;SDS011;56967;43.538;-5.646;2022-09-09T06:00:49;8.10;;;1.40;;
69703;SDS011;56967;43.538;-5.646;2022-09-09T06:03:15;6.85;;;1.83;;
69703;SDS011;56967;43.538;-5.646;2022-09-09T06:05:42;5.57;;;1.30;;
69703;SDS011;56967;43.538;-5.646;2022-09-09T06:08:07;5.70;;;1.38;;
69703;SDS011;56967;43.538;-5.646;2022-09-09T06:10:32;7.40;;;1.10;;
69703;SDS011;56967;43.538;-5.646;2022-09-09T06:13:01;6.00;;;1.63;;
69703;SDS011;56967;43.538;-5.646;2022-09-09T06:15:26;5.70;;;1.70;;
69703;SDS011;56967;43.538;-5.646;2022-09-09T06:17:55;4.43;;;1.13;;
69703;SDS011;56967;43.538;-5.646;2022-09-09T06:20:20;5.95;;;1.17;;
69703;SDS011;56967;43.538;-5.646;2022-09-09T06:22:46;4.32;;;1.30;;
69703;SDS011;56967;43.538;-5.646;2022-09-09T06:25:13;8.77;;;1.42;;
69703;SDS011;56967;43.538;-5.646;2022-09-09T06:27:39;5.90;;;1.20;;
69703;SDS011;56967;43.538;-5.646;2022-09-09T06:30:04;5.85;;;1.40;;
69703;SDS011;56967;43.538;-5.646;2022-09-09T06:32:30;5.40;;;1.30;;
69703;SDS011;56967;43.538;-5.646;2022-09-09T06:34:55;7.63;;;1.40;;
69703;SDS011;56967;43.538;-5.646;2022-09-09T06:37:20;5.43;;;1.30;;
69703;SDS011;56967;43.538;-5.646;2022-09-09T06:39:46;5.93;;;1.60;;
69703;SDS011;56967;43.538;-5.646;2022-09-09T06:42:11;7.60;;;1.35;;
69703;SDS011;56967;43.538;-5.646;2022-09-09T06:44:36;6.28;;;1.40;;
69703;SDS011;56967;43.538;-5.646;2022-09-09T06:47:02;6.65;;;1.80;;
69703;SDS011;56967;43.538;-5.646;2022-09-09T06:49:27;8.13;;;1.70;;
69703;SDS011;56967;43.538;-5.646;2022-09-09T06:51:53;4.45;;;1.70;;
69703;SDS011;56967;43.538;-5.646;2022-09-09T06:54:19;9.13;;;2.00;;
69703;SDS011;56967;43.538;-5.646;2022-09-09T06:56:44;5.88;;;1.60;;
69703;SDS011;56967;43.538;-5.646;2022-09-09T06:59:10;6.55;;;1.67;;
69703;SDS011;56967;43.538;-5.646;2022-09-09T07:01:40;5.50;;;1.77;;
69703;SDS011;56967;43.538;-5.646;2022-09-09T07:04:06;5.15;;;1.60;;
69703;SDS011;56967;43.538;-5.646;2022-09-09T07:06:40;7.00;;;1.48;;
69703;SDS011;56967;43.538;-5.646;2022-09-09T07:09:06;5.93;;;2.20;;
69703;SDS011;56967;43.538;-5.646;2022-09-09T07:11:34;4.13;;;1.60;;
69703;SDS011;56967;43.538;-5.646;2022-09-09T07:14:00;5.90;;;1.50;;
69703;SDS011;56967;43.538;-5.646;2022-09-09T07:16:26;5.25;;;1.75;;
69703;SDS011;56967;43.538;-5.646;2022-09-09T07:18:52;4.40;;;1.95;;
69703;SDS011;56967;43.538;-5.646;2022-09-09T07:21:20;7.32;;;2.03;;
69703;SDS011;56967;43.538;-5.646;2022-09-09T07:23:46;8.25;;;2.45;;
69703;SDS011;56967;43.538;-5.646;2022-09-09T07:26:12;5.32;;;1.60;;
69703;SDS011;56967;43.538;-5.646;2022-09-09T07:28:38;4.95;;;1.80;;
69703;SDS011;56967;43.538;-5.646;2022-09-09T07:31:04;4.50;;;2.85;;
69703;SDS011;56967;43.538;-5.646;2022-09-09T07:33:30;5.72;;;3.60;;
69703;SDS011;56967;43.538;-5.646;2022-09-09T07:36:07;5.78;;;3.30;;
69703;SDS011;56967;43.538;-5.646;2022-09-09T07:38:37;5.70;;;3.50;;
69703;SDS011;56967;43.538;-5.646;2022-09-09T07:41:06;5.85;;;3.20;;
69703;SDS011;56967;43.538;-5.646;2022-09-09T07:43:33;6.95;;;3.88;;
69703;SDS011;56967;43.538;-5.646;2022-09-09T07:45:59;6.20;;;3.90;;
69703;SDS011;56967;43.538;-5.646;2022-09-09T07:48:26;6.70;;;3.88;;
69703;SDS011;56967;43.538;-5.646;2022-09-09T07:50:51;5.93;;;4.72;;
69703;SDS011;56967;43.538;-5.646;2022-09-09T07:53:17;7.57;;;5.50;;
69703;SDS011;56967;43.538;-5.646;2022-09-09T07:55:42;7.80;;;6.90;;
69703;SDS011;56967;43.538;-5.646;2022-09-09T07:58:08;8.35;;;6.80;;
69703;SDS011;56967;43.538;-5.646;2022-09-09T08:00:33;9.77;;;8.93;;
69703;SDS011;56967;43.538;-5.646;2022-09-09T08:02:58;9.70;;;8.70;;
69703;SDS011;56967;43.538;-5.646;2022-09-09T08:05:27;10.93;;;9.80;;
69703;SDS011;56967;43.538;-5.646;2022-09-09T08:07:52;12.00;;;10.60;;
69703;SDS011;56967;43.538;-5.646;2022-09-09T08:10:17;12.13;;;10.93;;
69703;SDS011;56967;43.538;-5.646;2022-09-09T08:12:43;11.38;;;10.43;;
69703;SDS011;56967;43.538;-5.646;2022-09-09T08:15:08;11.33;;;10.20;;
69703;SDS011;56967;43.538;-5.646;2022-09-09T08:17:34;17.60;;;14.87;;
69703;SDS011;56967;43.538;-5.646;2022-09-09T08:19:59;15.77;;;14.27;;
69703;SDS011;56967;43.538;-5.646;2022-09-09T08:22:29;20.33;;;18.65;;
69703;SDS011;56967;43.538;-5.646;2022-09-09T08:24:54;24.10;;;22.20;;
69703;SDS011;56967;43.538;-5.646;2022-09-09T08:27:20;21.37;;;19.70;;
69703;SDS011;56967;43.538;-5.646;2022-09-09T08:29:45;21.80;;;20.20;;
69703;SDS011;56967;43.538;-5.646;2022-09-09T08:32:10;26.53;;;24.70;;
69703;SDS011;56967;43.538;-5.646;2022-09-09T08:34:36;25.20;;;22.97;;
69703;SDS011;56967;43.538;-5.646;2022-09-09T08:37:01;22.83;;;20.93;;
69703;SDS011;56967;43.538;-5.646;2022-09-09T08:39:26;24.20;;;21.97;;
69703;SDS011;56967;43.538;-5.646;2022-09-09T08:41:57;23.00;;;21.00;;
69703;SDS011;56967;43.538;-5.646;2022-09-09T08:50:07;13.07;;;11.70;;
69703;SDS011;56967;43.538;-5.646;2022-09-09T08:52:30;15.20;;;12.93;;
69703;SDS011;56967;43.538;-5.646;2022-09-09T08:54:56;15.30;;;14.00;;
69703;SDS011;56967;43.538;-5.646;2022-09-09T08:57:25;16.23;;;14.70;;
69703;SDS011;56967;43.538;-5.646;2022-09-09T08:59:56;15.30;;;14.07;;
69703;SDS011;56967;43.538;-5.646;2022-09-09T09:02:32;15.85;;;14.45;;
69703;SDS011;56967;43.538;-5.646;2022-09-09T09:07:44;5.32;;;2.80;;
69703;SDS011;56967;43.538;-5.646;2022-09-09T09:10:21;5.28;;;2.47;;
69703;SDS011;56967;43.538;-5.646;2022-09-09T09:12:50;6.32;;;2.35;;
69703;SDS011;56967;43.538;-5.646;2022-09-09T09:15:20;5.28;;;2.22;;
69703;SDS011;56967;43.538;-5.646;2022-09-09T09:17:46;4.78;;;2.70;;
69703;SDS011;56967;43.538;-5.646;2022-09-09T09:20:14;4.57;;;2.00;;
69703;SDS011;56967;43.538;-5.646;2022-09-09T09:22:50;6.90;;;2.47;;
69703;SDS011;56967;43.538;-5.646;2022-09-09T09:28:00;9.68;;;2.80;;
69703;SDS011;56967;43.538;-5.646;2022-09-09T09:33:16;9.45;;;2.95;;
69703;SDS011;56967;43.538;-5.646;2022-09-09T09:35:42;7.55;;;2.30;;
69703;SDS011;56967;43.538;-5.646;2022-09-09T09:38:20;5.60;;;2.20;;
69703;SDS011;56967;43.538;-5.646;2022-09-09T09:43:23;5.60;;;2.30;;
69703;SDS011;56967;43.538;-5.646;2022-09-09T09:45:49;9.93;;;3.15;;
69703;SDS011;56967;43.538;-5.646;2022-09-09T09:48:15;11.30;;;2.72;;
69703;SDS011;56967;43.538;-5.646;2022-09-09T09:53:36;6.32;;;2.58;;
69703;SDS011;56967;43.538;-5.646;2022-09-09T09:58:27;10.67;;;2.80;;
69703;SDS011;56967;43.538;-5.646;2022-09-09T10:00:56;6.50;;;2.30;;
69703;SDS011;56967;43.538;-5.646;2022-09-09T10:03:26;7.47;;;2.75;;
69703;SDS011;56967;43.538;-5.646;2022-09-09T10:05:51;5.07;;;2.60;;
69703;SDS011;56967;43.538;-5.646;2022-09-09T10:08:17;6.22;;;2.80;;
69703;SDS011;56967;43.538;-5.646;2022-09-09T10:36:35;5.30;;;1.77;;
69703;SDS011;56967;43.538;-5.646;2022-09-09T10:39:18;8.40;;;1.70;;
69703;SDS011;56967;43.538;-5.646;2022-09-09T10:59:54;6.20;;;1.35;;
69703;SDS011;56967;43.538;-5.646;2022-09-09T11:02:26;10.13;;;1.65;;
69703;SDS011;56967;43.538;-5.646;2022-09-09T11:05:00;6.32;;;1.52;;
69703;SDS011;56967;43.538;-5.646;2022-09-09T11:07:32;5.72;;;1.30;;
69703;SDS011;56967;43.538;-5.646;2022-09-09T11:10:01;5.50;;;1.30;;
69703;SDS011;56967;43.538;-5.646;2022-09-09T11:12:27;7.60;;;1.50;;
69703;SDS011;56967;43.538;-5.646;2022-09-09T11:14:57;7.15;;;1.40;;
69703;SDS011;56967;43.538;-5.646;2022-09-09T11:17:30;7.60;;;1.85;;
69703;SDS011;56967;43.538;-5.646;2022-09-09T11:19:58;3.92;;;1.70;;
69703;SDS011;56967;43.538;-5.646;2022-09-09T11:22:32;8.30;;;1.87;;
69703;SDS011;56967;43.538;-5.646;2022-09-09T11:25:10;4.38;;;1.42;;
69703;SDS011;56967;43.538;-5.646;2022-09-09T11:33:37;8.65;;;1.40;;
69703;SDS011;56967;43.538;-5.646;2022-09-09T11:36:29;7.72;;;1.50;;
69703;SDS011;56967;43.538;-5.646;2022-09-09T11:39:00;7.78;;;1.48;;
69703;SDS011;56967;43.538;-5.646;2022-09-09T11:41:33;8.95;;;1.70;;
69703;SDS011;56967;43.538;-5.646;2022-09-09T11:43:59;6.95;;;1.90;;
69703;SDS011;56967;43.538;-5.646;2022-09-09T11:46:32;5.15;;;1.50;;
69703;SDS011;56967;43.538;-5.646;2022-09-09T11:49:04;8.38;;;1.60;;
69703;SDS011;56967;43.538;-5.646;2022-09-09T11:51:31;7.55;;;1.40;;
69703;SDS011;56967;43.538;-5.646;2022-09-09T11:53:58;6.45;;;1.45;;
69703;SDS011;56967;43.538;-5.646;2022-09-09T11:56:30;4.15;;;1.63;;
69703;SDS011;56967;43.538;-5.646;2022-09-09T11:59:16;6.03;;;1.17;;
69703;SDS011;56967;43.538;-5.646;2022-09-09T12:01:44;6.50;;;1.33;;
69703;SDS011;56967;43.538;-5.646;2022-09-09T12:06:46;4.05;;;1.40;;
69703;SDS011;56967;43.538;-5.646;2022-09-09T12:09:21;6.65;;;1.50;;
69703;SDS011;56967;43.538;-5.646;2022-09-09T12:11:48;6.78;;;1.63;;
69703;SDS011;56967;43.538;-5.646;2022-09-09T12:14:34;6.25;;;1.10;;
69703;SDS011;56967;43.538;-5.646;2022-09-09T12:20:15;6.85;;;1.17;;
69703;SDS011;56967;43.538;-5.646;2022-09-09T12:27:33;5.90;;;1.67;;
69703;SDS011;56967;43.538;-5.646;2022-09-09T12:32:25;4.93;;;2.05;;
69703;SDS011;56967;43.538;-5.646;2022-09-09T12:35:02;9.57;;;1.73;;
69703;SDS011;56967;43.538;-5.646;2022-09-09T12:37:35;5.22;;;1.80;;
69703;SDS011;56967;43.538;-5.646;2022-09-09T12:40:03;7.93;;;1.85;;
69703;SDS011;56967;43.538;-5.646;2022-09-09T12:42:28;7.82;;;1.77;;
69703;SDS011;56967;43.538;-5.646;2022-09-09T12:44:58;8.27;;;2.03;;
69703;SDS011;56967;43.538;-5.646;2022-09-09T12:47:30;7.20;;;1.63;;
69703;SDS011;56967;43.538;-5.646;2022-09-09T12:49:57;6.75;;;1.90;;
69703;SDS011;56967;43.538;-5.646;2022-09-09T12:52:25;7.65;;;1.65;;
69703;SDS011;56967;43.538;-5.646;2022-09-09T12:54:51;5.93;;;1.65;;
69703;SDS011;56967;43.538;-5.646;2022-09-09T12:57:18;4.85;;;1.63;;
69703;SDS011;56967;43.538;-5.646;2022-09-09T12:59:44;5.53;;;1.70;;
69703;SDS011;56967;43.538;-5.646;2022-09-09T13:02:23;4.10;;;1.30;;
69703;SDS011;56967;43.538;-5.646;2022-09-09T13:04:50;9.48;;;2.20;;
69703;SDS011;56967;43.538;-5.646;2022-09-09T13:07:16;5.60;;;1.75;;
69703;SDS011;56967;43.538;-5.646;2022-09-09T13:09:42;6.22;;;1.75;;
69703;SDS011;56967;43.538;-5.646;2022-09-09T13:12:11;3.45;;;1.35;;
69703;SDS011;56967;43.538;-5.646;2022-09-09T13:14:38;8.98;;;1.80;;
69703;SDS011;56967;43.538;-5.646;2022-09-09T13:17:04;6.60;;;1.80;;
69703;SDS011;56967;43.538;-5.646;2022-09-09T13:19:31;5.88;;;1.42;;
69703;SDS011;56967;43.538;-5.646;2022-09-09T13:21:57;4.93;;;1.50;;
69703;SDS011;56967;43.538;-5.646;2022-09-09T13:24:32;7.45;;;1.80;;
69703;SDS011;56967;43.538;-5.646;2022-09-09T13:27:02;5.18;;;1.90;;
69703;SDS011;56967;43.538;-5.646;2022-09-09T13:29:28;5.90;;;1.40;;
69703;SDS011;56967;43.538;-5.646;2022-09-09T13:32:03;7.00;;;2.47;;
69703;SDS011;56967;43.538;-5.646;2022-09-09T13:34:29;3.65;;;1.30;;
69703;SDS011;56967;43.538;-5.646;2022-09-09T13:36:57;5.22;;;1.65;;
69703;SDS011;56967;43.538;-5.646;2022-09-09T13:39:23;7.30;;;1.88;;
69703;SDS011;56967;43.538;-5.646;2022-09-09T13:41:49;4.53;;;1.50;;
69703;SDS011;56967;43.538;-5.646;2022-09-09T13:44:17;5.13;;;1.50;;
69703;SDS011;56967;43.538;-5.646;2022-09-09T13:46:44;7.38;;;1.77;;
69703;SDS011;56967;43.538;-5.646;2022-09-09T13:51:36;4.70;;;1.20;;
69703;SDS011;56967;43.538;-5.646;2022-09-09T13:54:03;5.78;;;1.52;;
69703;SDS011;56967;43.538;-5.646;2022-09-09T13:56:29;2.75;;;1.27;;
69703;SDS011;56967;43.538;-5.646;2022-09-09T13:58:54;4.67;;;1.20;;
69703;SDS011;56967;43.538;-5.646;2022-09-09T14:01:20;4.55;;;1.20;;
69703;SDS011;56967;43.538;-5.646;2022-09-09T14:03:45;6.28;;;1.30;;
69703;SDS011;56967;43.538;-5.646;2022-09-09T14:06:10;5.50;;;1.20;;
69703;SDS011;56967;43.538;-5.646;2022-09-09T14:08:36;6.97;;;1.35;;
69703;SDS011;56967;43.538;-5.646;2022-09-09T14:11:02;6.00;;;1.48;;
69703;SDS011;56967;43.538;-5.646;2022-09-09T14:13:28;5.10;;;1.30;;
69703;SDS011;56967;43.538;-5.646;2022-09-09T14:15:53;4.30;;;1.57;;
69703;SDS011;56967;43.538;-5.646;2022-09-09T14:18:18;8.60;;;1.85;;
69703;SDS011;56967;43.538;-5.646;2022-09-09T14:20:44;5.28;;;1.70;;
69703;SDS011;56967;43.538;-5.646;2022-09-09T14:23:10;5.35;;;2.00;;
69703;SDS011;56967;43.538;-5.646;2022-09-09T14:25:36;5.63;;;1.20;;
69703;SDS011;56967;43.538;-5.646;2022-09-09T14:28:04;5.80;;;1.35;;
69703;SDS011;56967;43.538;-5.646;2022-09-09T14:30:29;6.88;;;1.63;;
69703;SDS011;56967;43.538;-5.646;2022-09-09T14:32:54;11.25;;;1.75;;
69703;SDS011;56967;43.538;-5.646;2022-09-09T14:35:20;5.97;;;1.40;;
69703;SDS011;56967;43.538;-5.646;2022-09-09T14:37:45;5.68;;;1.30;;
69703;SDS011;56967;43.538;-5.646;2022-09-09T14:40:11;3.33;;;1.10;;
69703;SDS011;56967;43.538;-5.646;2022-09-09T14:42:36;3.60;;;1.20;;
69703;SDS011;56967;43.538;-5.646;2022-09-09T14:45:02;3.80;;;1.15;;
69703;SDS011;56967;43.538;-5.646;2022-09-09T14:47:27;3.90;;;1.23;;
69703;SDS011;56967;43.538;-5.646;2022-09-09T14:49:53;5.70;;;1.55;;
69703;SDS011;56967;43.538;-5.646;2022-09-09T14:52:18;7.78;;;1.50;;
69703;SDS011;56967;43.538;-5.646;2022-09-09T14:54:43;5.68;;;1.00;;
69703;SDS011;56967;43.538;-5.646;2022-09-09T14:57:09;5.05;;;1.40;;
69703;SDS011;56967;43.538;-5.646;2022-09-09T14:59:34;3.97;;;1.30;;
69703;SDS011;56967;43.538;-5.646;2022-09-09T15:02:00;4.78;;;1.15;;
69703;SDS011;56967;43.538;-5.646;2022-09-09T15:04:29;7.00;;;1.90;;
69703;SDS011;56967;43.538;-5.646;2022-09-09T15:06:54;3.45;;;0.93;;
69703;SDS011;56967;43.538;-5.646;2022-09-09T15:09:19;4.38;;;0.80;;
69703;SDS011;56967;43.538;-5.646;2022-09-09T15:11:45;4.35;;;1.60;;
69703;SDS011;56967;43.538;-5.646;2022-09-09T15:14:10;6.40;;;1.23;;
69703;SDS011;56967;43.538;-5.646;2022-09-09T15:16:37;5.00;;;1.20;;
69703;SDS011;56967;43.538;-5.646;2022-09-09T15:19:03;3.83;;;1.35;;
69703;SDS011;56967;43.538;-5.646;2022-09-09T15:21:29;4.57;;;1.23;;
69703;SDS011;56967;43.538;-5.646;2022-09-09T15:23:55;6.20;;;1.23;;
69703;SDS011;56967;43.538;-5.646;2022-09-09T15:26:21;4.50;;;1.10;;
69703;SDS011;56967;43.538;-5.646;2022-09-09T15:28:46;7.10;;;1.48;;
69703;SDS011;56967;43.538;-5.646;2022-09-09T15:31:20;7.15;;;1.30;;
69703;SDS011;56967;43.538;-5.646;2022-09-09T15:36:18;9.20;;;1.65;;
69703;SDS011;56967;43.538;-5.646;2022-09-09T15:38:44;7.95;;;1.60;;
69703;SDS011;56967;43.538;-5.646;2022-09-09T15:41:10;4.95;;;1.38;;
69703;SDS011;56967;43.538;-5.646;2022-09-09T15:43:35;6.28;;;1.02;;
69703;SDS011;56967;43.538;-5.646;2022-09-09T15:48:43;3.80;;;0.80;;
69703;SDS011;56967;43.538;-5.646;2022-09-09T15:51:11;7.25;;;1.20;;
69703;SDS011;56967;43.538;-5.646;2022-09-09T15:53:38;4.28;;;1.00;;
69703;SDS011;56967;43.538;-5.646;2022-09-09T15:56:05;2.90;;;0.85;;
69703;SDS011;56967;43.538;-5.646;2022-09-09T15:58:31;5.70;;;1.10;;
69703;SDS011;56967;43.538;-5.646;2022-09-09T16:03:29;3.80;;;0.88;;
69703;SDS011;56967;43.538;-5.646;2022-09-09T16:05:54;3.45;;;1.00;;
69703;SDS011;56967;43.538;-5.646;2022-09-09T16:08:20;4.57;;;1.10;;
69703;SDS011;56967;43.538;-5.646;2022-09-09T16:10:45;5.43;;;1.17;;
69703;SDS011;56967;43.538;-5.646;2022-09-09T16:13:11;3.50;;;0.93;;
69703;SDS011;56967;43.538;-5.646;2022-09-09T16:15:39;3.92;;;0.80;;
69703;SDS011;56967;43.538;-5.646;2022-09-09T16:18:04;4.33;;;1.20;;
69703;SDS011;56967;43.538;-5.646;2022-09-09T16:20:29;3.63;;;0.80;;
69703;SDS011;56967;43.538;-5.646;2022-09-09T16:22:55;4.30;;;0.90;;
69703;SDS011;56967;43.538;-5.646;2022-09-09T16:25:22;7.82;;;0.95;;
69703;SDS011;56967;43.538;-5.646;2022-09-09T16:27:47;4.55;;;1.52;;
69703;SDS011;56967;43.538;-5.646;2022-09-09T16:30:12;4.50;;;1.10;;
69703;SDS011;56967;43.538;-5.646;2022-09-09T16:32:38;5.00;;;1.13;;
69703;SDS011;56967;43.538;-5.646;2022-09-09T16:35:03;2.83;;;0.70;;
69703;SDS011;56967;43.538;-5.646;2022-09-09T16:37:29;4.90;;;0.80;;
69703;SDS011;56967;43.538;-5.646;2022-09-09T16:39:55;2.85;;;0.70;;
69703;SDS011;56967;43.538;-5.646;2022-09-09T16:42:20;4.55;;;0.88;;
69703;SDS011;56967;43.538;-5.646;2022-09-09T16:44:45;2.47;;;0.90;;
69703;SDS011;56967;43.538;-5.646;2022-09-09T16:47:11;3.95;;;0.80;;
69703;SDS011;56967;43.538;-5.646;2022-09-09T16:49:36;4.67;;;0.83;;
69703;SDS011;56967;43.538;-5.646;2022-09-09T16:52:02;4.38;;;1.10;;
69703;SDS011;56967;43.538;-5.646;2022-09-09T16:54:27;3.90;;;1.02;;
69703;SDS011;56967;43.538;-5.646;2022-09-09T16:56:53;6.15;;;1.02;;